sensor_id;sensor_type;location;lat;lon;timestamp;P1;durP1;ratioP1;P2;durP2;ratioP2
908;SDS011;441;51.192;6.788;2024-03-29T00:00:43;19.63;;;18.93;;
908;SDS011;441;51.192;6.788;2024-03-29T00:03:09;19.50;;;18.80;;
908;SDS011;441;51.192;6.788;2024-03-29T00:05:35;20.17;;;19.37;;
908;SDS011;441;51.192;6.788;2024-03-29T00:08:02;20.80;;;20.00;;
908;SDS011;441;51.192;6.788;2024-03-29T00:10:28;19.70;;;19.00;;
908;SDS011;441;51.192;6.788;2024-03-29T00:12:54;20.60;;;19.80;;
908;SDS011;441;51.192;6.788;2024-03-29T00:15:22;18.23;;;17.63;;
908;SDS011;441;51.192;6.788;2024-03-29T00:17:48;19.33;;;18.40;;
908;SDS011;441;51.192;6.788;2024-03-29T00:20:14;19.10;;;18.40;;
908;SDS011;441;51.192;6.788;2024-03-29T00:22:40;19.03;;;18.43;;
908;SDS011;441;51.192;6.788;2024-03-29T00:25:06;19.57;;;18.70;;
908;SDS011;441;51.192;6.788;2024-03-29T00:27:32;18.73;;;18.13;;
908;SDS011;441;51.192;6.788;2024-03-29T00:29:58;18.80;;;18.20;;
908;SDS011;441;51.192;6.788;2024-03-29T00:32:25;17.83;;;17.13;;
908;SDS011;441;51.192;6.788;2024-03-29T00:34:51;18.53;;;17.93;;
908;SDS011;441;51.192;6.788;2024-03-29T00:37:18;18.60;;;18.00;;
908;SDS011;441;51.192;6.788;2024-03-29T00:39:45;18.80;;;18.20;;
908;SDS011;441;51.192;6.788;2024-03-29T00:42:11;19.13;;;18.43;;
908;SDS011;441;51.192;6.788;2024-03-29T00:44:37;18.80;;;18.20;;
908;SDS011;441;51.192;6.788;2024-03-29T00:47:03;19.33;;;18.63;;
908;SDS011;441;51.192;6.788;2024-03-29T00:49:30;19.27;;;18.67;;
908;SDS011;441;51.192;6.788;2024-03-29T00:51:56;19.50;;;18.80;;
908;SDS011;441;51.192;6.788;2024-03-29T00:54:22;19.30;;;18.70;;
908;SDS011;441;51.192;6.788;2024-03-29T00:56:48;19.70;;;19.00;;
908;SDS011;441;51.192;6.788;2024-03-29T00:59:14;19.10;;;18.50;;
908;SDS011;441;51.192;6.788;2024-03-29T01:01:40;19.13;;;18.53;;
908;SDS011;441;51.192;6.788;2024-03-29T01:04:06;19.87;;;19.20;;
908;SDS011;441;51.192;6.788;2024-03-29T01:06:33;19.67;;;19.07;;
908;SDS011;441;51.192;6.788;2024-03-29T01:08:59;19.83;;;19.23;;
908;SDS011;441;51.192;6.788;2024-03-29T01:11:25;19.90;;;19.30;;
908;SDS011;441;51.192;6.788;2024-03-29T01:13:51;20.47;;;19.77;;
908;SDS011;441;51.192;6.788;2024-03-29T01:16:17;20.13;;;19.53;;
908;SDS011;441;51.192;6.788;2024-03-29T01:18:43;20.20;;;19.50;;
908;SDS011;441;51.192;6.788;2024-03-29T01:21:09;20.90;;;20.00;;
908;SDS011;441;51.192;6.788;2024-03-29T01:23:36;20.33;;;19.73;;
908;SDS011;441;51.192;6.788;2024-03-29T01:26:02;20.27;;;19.57;;
908;SDS011;441;51.192;6.788;2024-03-29T01:28:29;19.33;;;18.70;;
908;SDS011;441;51.192;6.788;2024-03-29T01:30:55;19.00;;;18.40;;
908;SDS011;441;51.192;6.788;2024-03-29T01:33:21;19.30;;;18.70;;
908;SDS011;441;51.192;6.788;2024-03-29T01:35:47;19.33;;;18.73;;
908;SDS011;441;51.192;6.788;2024-03-29T01:38:14;18.97;;;18.37;;
908;SDS011;441;51.192;6.788;2024-03-29T01:40:41;19.77;;;19.03;;
908;SDS011;441;51.192;6.788;2024-03-29T01:43:08;26.07;;;25.17;;
908;SDS011;441;51.192;6.788;2024-03-29T01:45:35;23.97;;;23.07;;
908;SDS011;441;51.192;6.788;2024-03-29T01:48:04;24.40;;;23.60;;
908;SDS011;441;51.192;6.788;2024-03-29T01:50:31;25.00;;;24.13;;
908;SDS011;441;51.192;6.788;2024-03-29T01:52:59;24.10;;;23.30;;
908;SDS011;441;51.192;6.788;2024-03-29T01:55:26;23.80;;;23.10;;
908;SDS011;441;51.192;6.788;2024-03-29T01:57:54;24.20;;;23.30;;
908;SDS011;441;51.192;6.788;2024-03-29T02:00:21;23.70;;;22.90;;
908;SDS011;441;51.192;6.788;2024-03-29T02:02:50;24.23;;;23.40;;
908;SDS011;441;51.192;6.788;2024-03-29T02:05:18;23.60;;;22.80;;
908;SDS011;441;51.192;6.788;2024-03-29T02:07:45;22.90;;;22.20;;
908;SDS011;441;51.192;6.788;2024-03-29T02:10:13;23.43;;;22.67;;
908;SDS011;441;51.192;6.788;2024-03-29T02:12:40;23.20;;;22.40;;
908;SDS011;441;51.192;6.788;2024-03-29T02:15:08;19.00;;;18.40;;
908;SDS011;441;51.192;6.788;2024-03-29T02:17:34;19.70;;;19.00;;
908;SDS011;441;51.192;6.788;2024-03-29T02:20:01;22.80;;;22.10;;
908;SDS011;441;51.192;6.788;2024-03-29T02:22:28;24.13;;;23.07;;
908;SDS011;441;51.192;6.788;2024-03-29T02:24:58;24.63;;;23.43;;
908;SDS011;441;51.192;6.788;2024-03-29T02:27:25;23.77;;;22.97;;
908;SDS011;441;51.192;6.788;2024-03-29T02:29:53;23.50;;;22.60;;
908;SDS011;441;51.192;6.788;2024-03-29T02:32:20;22.93;;;22.13;;
908;SDS011;441;51.192;6.788;2024-03-29T02:34:46;23.63;;;22.83;;
908;SDS011;441;51.192;6.788;2024-03-29T02:37:13;22.83;;;22.13;;
908;SDS011;441;51.192;6.788;2024-03-29T02:39:40;22.90;;;22.20;;
908;SDS011;441;51.192;6.788;2024-03-29T02:42:08;18.80;;;18.20;;
908;SDS011;441;51.192;6.788;2024-03-29T02:44:34;19.47;;;18.70;;
908;SDS011;441;51.192;6.788;2024-03-29T02:47:01;19.00;;;18.30;;
908;SDS011;441;51.192;6.788;2024-03-29T02:49:28;19.33;;;18.63;;
908;SDS011;441;51.192;6.788;2024-03-29T02:51:54;18.73;;;18.03;;
908;SDS011;441;51.192;6.788;2024-03-29T02:54:22;18.53;;;17.93;;
908;SDS011;441;51.192;6.788;2024-03-29T02:56:48;18.80;;;18.20;;
908;SDS011;441;51.192;6.788;2024-03-29T02:59:16;20.13;;;19.53;;
908;SDS011;441;51.192;6.788;2024-03-29T03:01:42;19.33;;;18.73;;
908;SDS011;441;51.192;6.788;2024-03-29T03:04:09;19.50;;;18.90;;
908;SDS011;441;51.192;6.788;2024-03-29T03:06:34;18.90;;;18.30;;
908;SDS011;441;51.192;6.788;2024-03-29T03:09:01;19.20;;;18.50;;
908;SDS011;441;51.192;6.788;2024-03-29T03:11:45;19.07;;;18.47;;
908;SDS011;441;51.192;6.788;2024-03-29T03:14:12;19.23;;;18.60;;
908;SDS011;441;51.192;6.788;2024-03-29T03:16:41;20.00;;;19.30;;
908;SDS011;441;51.192;6.788;2024-03-29T03:19:07;19.60;;;18.70;;
908;SDS011;441;51.192;6.788;2024-03-29T03:21:34;19.10;;;18.50;;
908;SDS011;441;51.192;6.788;2024-03-29T03:24:02;19.03;;;18.33;;
908;SDS011;441;51.192;6.788;2024-03-29T03:26:29;18.40;;;17.80;;
908;SDS011;441;51.192;6.788;2024-03-29T03:28:56;18.53;;;17.93;;
908;SDS011;441;51.192;6.788;2024-03-29T03:31:22;18.80;;;18.20;;
908;SDS011;441;51.192;6.788;2024-03-29T03:33:50;18.60;;;18.00;;
908;SDS011;441;51.192;6.788;2024-03-29T03:36:16;23.10;;;22.30;;
908;SDS011;441;51.192;6.788;2024-03-29T03:38:42;19.30;;;18.70;;
908;SDS011;441;51.192;6.788;2024-03-29T03:41:08;19.87;;;18.93;;
908;SDS011;441;51.192;6.788;2024-03-29T03:43:35;19.27;;;18.67;;
908;SDS011;441;51.192;6.788;2024-03-29T03:46:01;19.57;;;18.97;;
908;SDS011;441;51.192;6.788;2024-03-29T03:48:28;19.40;;;18.80;;
908;SDS011;441;51.192;6.788;2024-03-29T03:50:56;18.97;;;18.37;;
908;SDS011;441;51.192;6.788;2024-03-29T03:53:22;19.10;;;18.50;;
908;SDS011;441;51.192;6.788;2024-03-29T03:55:48;20.67;;;19.87;;
908;SDS011;441;51.192;6.788;2024-03-29T03:58:15;21.83;;;21.13;;
908;SDS011;441;51.192;6.788;2024-03-29T04:00:41;19.43;;;18.83;;
908;SDS011;441;51.192;6.788;2024-03-29T04:03:07;20.87;;;20.10;;
908;SDS011;441;51.192;6.788;2024-03-29T04:05:36;20.60;;;19.90;;
908;SDS011;441;51.192;6.788;2024-03-29T04:08:05;21.10;;;20.20;;
908;SDS011;441;51.192;6.788;2024-03-29T04:10:31;20.37;;;19.57;;
908;SDS011;441;51.192;6.788;2024-03-29T04:12:57;19.93;;;19.33;;
908;SDS011;441;51.192;6.788;2024-03-29T04:15:23;19.87;;;19.27;;
908;SDS011;441;51.192;6.788;2024-03-29T04:17:50;20.63;;;19.93;;
908;SDS011;441;51.192;6.788;2024-03-29T04:20:16;20.20;;;19.60;;
908;SDS011;441;51.192;6.788;2024-03-29T04:22:43;20.33;;;19.73;;
908;SDS011;441;51.192;6.788;2024-03-29T04:25:11;20.17;;;19.57;;
908;SDS011;441;51.192;6.788;2024-03-29T04:27:39;20.00;;;19.30;;
908;SDS011;441;51.192;6.788;2024-03-29T04:30:06;20.10;;;19.50;;
908;SDS011;441;51.192;6.788;2024-03-29T04:32:33;20.40;;;19.60;;
908;SDS011;441;51.192;6.788;2024-03-29T04:34:59;20.80;;;20.00;;
908;SDS011;441;51.192;6.788;2024-03-29T04:37:26;20.43;;;19.83;;
908;SDS011;441;51.192;6.788;2024-03-29T04:39:53;20.70;;;19.90;;
908;SDS011;441;51.192;6.788;2024-03-29T04:42:21;20.10;;;19.50;;
908;SDS011;441;51.192;6.788;2024-03-29T04:44:48;19.80;;;19.20;;
908;SDS011;441;51.192;6.788;2024-03-29T04:47:14;20.37;;;19.60;;
908;SDS011;441;51.192;6.788;2024-03-29T04:49:41;20.20;;;19.50;;
908;SDS011;441;51.192;6.788;2024-03-29T04:52:08;20.00;;;19.40;;
908;SDS011;441;51.192;6.788;2024-03-29T04:54:35;20.17;;;19.47;;
908;SDS011;441;51.192;6.788;2024-03-29T04:57:01;19.53;;;18.87;;
908;SDS011;441;51.192;6.788;2024-03-29T04:59:32;20.60;;;19.90;;
908;SDS011;441;51.192;6.788;2024-03-29T05:01:59;20.50;;;19.80;;
908;SDS011;441;51.192;6.788;2024-03-29T05:04:26;21.13;;;20.37;;
908;SDS011;441;51.192;6.788;2024-03-29T05:06:53;20.37;;;19.67;;
908;SDS011;441;51.192;6.788;2024-03-29T05:09:20;20.10;;;19.40;;
908;SDS011;441;51.192;6.788;2024-03-29T05:11:48;20.10;;;19.50;;
908;SDS011;441;51.192;6.788;2024-03-29T05:14:15;20.40;;;19.70;;
908;SDS011;441;51.192;6.788;2024-03-29T05:16:44;20.67;;;19.87;;
908;SDS011;441;51.192;6.788;2024-03-29T05:19:12;20.20;;;19.50;;
908;SDS011;441;51.192;6.788;2024-03-29T05:21:39;20.70;;;20.10;;
908;SDS011;441;51.192;6.788;2024-03-29T05:24:06;20.80;;;20.20;;
908;SDS011;441;51.192;6.788;2024-03-29T05:26:33;20.83;;;20.23;;
908;SDS011;441;51.192;6.788;2024-03-29T05:29:00;20.80;;;20.10;;
908;SDS011;441;51.192;6.788;2024-03-29T05:31:29;21.00;;;20.30;;
908;SDS011;441;51.192;6.788;2024-03-29T05:33:57;21.07;;;20.47;;
908;SDS011;441;51.192;6.788;2024-03-29T05:36:25;20.97;;;20.27;;
908;SDS011;441;51.192;6.788;2024-03-29T05:38:52;21.20;;;20.50;;
908;SDS011;441;51.192;6.788;2024-03-29T05:41:19;21.90;;;21.20;;
908;SDS011;441;51.192;6.788;2024-03-29T05:43:45;21.27;;;20.57;;
908;SDS011;441;51.192;6.788;2024-03-29T05:46:14;20.73;;;20.13;;
908;SDS011;441;51.192;6.788;2024-03-29T05:48:42;23.30;;;22.60;;
908;SDS011;441;51.192;6.788;2024-03-29T05:51:10;22.70;;;21.67;;
908;SDS011;441;51.192;6.788;2024-03-29T05:53:37;22.60;;;21.90;;
908;SDS011;441;51.192;6.788;2024-03-29T05:56:04;20.67;;;19.98;;
908;SDS011;441;51.192;6.788;2024-03-29T05:58:31;18.00;;;17.40;;
908;SDS011;441;51.192;6.788;2024-03-29T06:00:59;21.40;;;20.80;;
908;SDS011;441;51.192;6.788;2024-03-29T06:03:26;18.95;;;17.95;;
908;SDS011;441;51.192;6.788;2024-03-29T06:05:54;21.83;;;21.13;;
908;SDS011;441;51.192;6.788;2024-03-29T06:08:22;22.80;;;21.90;;
908;SDS011;441;51.192;6.788;2024-03-29T06:10:51;24.43;;;23.53;;
908;SDS011;441;51.192;6.788;2024-03-29T06:13:18;22.90;;;22.20;;
908;SDS011;441;51.192;6.788;2024-03-29T06:16:14;23.00;;;22.20;;
908;SDS011;441;51.192;6.788;2024-03-29T06:18:58;25.20;;;24.30;;
908;SDS011;441;51.192;6.788;2024-03-29T06:21:24;23.97;;;22.97;;
908;SDS011;441;51.192;6.788;2024-03-29T06:23:53;22.87;;;22.17;;
908;SDS011;441;51.192;6.788;2024-03-29T06:26:20;23.13;;;22.37;;
908;SDS011;441;51.192;6.788;2024-03-29T06:28:46;22.30;;;21.50;;
908;SDS011;441;51.192;6.788;2024-03-29T06:31:13;21.87;;;21.17;;
908;SDS011;441;51.192;6.788;2024-03-29T06:33:40;22.27;;;21.57;;
908;SDS011;441;51.192;6.788;2024-03-29T06:36:07;23.60;;;22.90;;
908;SDS011;441;51.192;6.788;2024-03-29T06:38:35;22.50;;;21.60;;
908;SDS011;441;51.192;6.788;2024-03-29T06:41:03;23.57;;;22.77;;
908;SDS011;441;51.192;6.788;2024-03-29T06:43:30;23.83;;;23.03;;
908;SDS011;441;51.192;6.788;2024-03-29T06:45:57;23.60;;;22.90;;
908;SDS011;441;51.192;6.788;2024-03-29T06:48:24;19.90;;;19.30;;
908;SDS011;441;51.192;6.788;2024-03-29T06:50:52;22.80;;;22.00;;
908;SDS011;441;51.192;6.788;2024-03-29T06:53:19;23.30;;;22.60;;
908;SDS011;441;51.192;6.788;2024-03-29T06:55:47;23.97;;;23.27;;
908;SDS011;441;51.192;6.788;2024-03-29T06:58:16;22.93;;;22.23;;
908;SDS011;441;51.192;6.788;2024-03-29T07:00:43;22.83;;;22.07;;
908;SDS011;441;51.192;6.788;2024-03-29T07:03:14;22.93;;;22.23;;
908;SDS011;441;51.192;6.788;2024-03-29T07:05:41;22.87;;;22.17;;
908;SDS011;441;51.192;6.788;2024-03-29T07:08:08;24.40;;;23.60;;
908;SDS011;441;51.192;6.788;2024-03-29T07:10:34;23.23;;;22.40;;
908;SDS011;441;51.192;6.788;2024-03-29T07:13:01;23.90;;;23.10;;
908;SDS011;441;51.192;6.788;2024-03-29T07:15:30;22.47;;;21.70;;
908;SDS011;441;51.192;6.788;2024-03-29T07:17:57;23.00;;;22.30;;
908;SDS011;441;51.192;6.788;2024-03-29T07:20:23;24.47;;;23.50;;
908;SDS011;441;51.192;6.788;2024-03-29T07:22:51;22.73;;;22.03;;
908;SDS011;441;51.192;6.788;2024-03-29T07:25:18;22.37;;;21.67;;
908;SDS011;441;51.192;6.788;2024-03-29T07:27:45;23.30;;;22.60;;
908;SDS011;441;51.192;6.788;2024-03-29T07:30:12;24.10;;;23.20;;
908;SDS011;441;51.192;6.788;2024-03-29T07:32:41;25.13;;;24.23;;
908;SDS011;441;51.192;6.788;2024-03-29T07:35:08;24.67;;;23.80;;
908;SDS011;441;51.192;6.788;2024-03-29T07:37:35;24.63;;;23.83;;
908;SDS011;441;51.192;6.788;2024-03-29T07:40:02;23.33;;;22.53;;
908;SDS011;441;51.192;6.788;2024-03-29T07:42:29;26.13;;;25.23;;
908;SDS011;441;51.192;6.788;2024-03-29T07:44:56;25.00;;;24.10;;
908;SDS011;441;51.192;6.788;2024-03-29T07:47:22;24.97;;;24.07;;
908;SDS011;441;51.192;6.788;2024-03-29T07:49:52;24.10;;;23.30;;
908;SDS011;441;51.192;6.788;2024-03-29T07:52:19;25.33;;;24.43;;
908;SDS011;441;51.192;6.788;2024-03-29T07:54:46;24.50;;;23.63;;
908;SDS011;441;51.192;6.788;2024-03-29T07:57:14;25.00;;;24.20;;
908;SDS011;441;51.192;6.788;2024-03-29T07:59:42;24.60;;;23.80;;
908;SDS011;441;51.192;6.788;2024-03-29T08:02:09;24.70;;;23.80;;
908;SDS011;441;51.192;6.788;2024-03-29T08:04:35;25.30;;;24.30;;
908;SDS011;441;51.192;6.788;2024-03-29T08:07:05;24.53;;;23.63;;
908;SDS011;441;51.192;6.788;2024-03-29T08:09:32;25.03;;;24.03;;
908;SDS011;441;51.192;6.788;2024-03-29T08:11:58;25.40;;;24.50;;
908;SDS011;441;51.192;6.788;2024-03-29T08:14:25;25.57;;;24.77;;
908;SDS011;441;51.192;6.788;2024-03-29T08:16:52;24.53;;;23.73;;
908;SDS011;441;51.192;6.788;2024-03-29T08:19:21;24.87;;;24.03;;
908;SDS011;441;51.192;6.788;2024-03-29T08:21:48;24.00;;;23.20;;
908;SDS011;441;51.192;6.788;2024-03-29T08:24:16;25.90;;;24.83;;
908;SDS011;441;51.192;6.788;2024-03-29T08:26:44;23.33;;;22.53;;
908;SDS011;441;51.192;6.788;2024-03-29T08:29:10;22.63;;;21.93;;
908;SDS011;441;51.192;6.788;2024-03-29T08:31:37;13.33;;;12.93;;
908;SDS011;441;51.192;6.788;2024-03-29T08:34:05;13.50;;;13.20;;
908;SDS011;441;51.192;6.788;2024-03-29T08:36:35;13.30;;;12.90;;
908;SDS011;441;51.192;6.788;2024-03-29T08:39:03;15.33;;;14.83;;
908;SDS011;441;51.192;6.788;2024-03-29T08:41:31;14.33;;;13.93;;
908;SDS011;441;51.192;6.788;2024-03-29T08:43:57;14.13;;;13.73;;
908;SDS011;441;51.192;6.788;2024-03-29T08:46:24;15.10;;;14.60;;
908;SDS011;441;51.192;6.788;2024-03-29T08:48:53;14.13;;;13.43;;
908;SDS011;441;51.192;6.788;2024-03-29T08:51:21;13.73;;;13.33;;
908;SDS011;441;51.192;6.788;2024-03-29T08:53:47;13.00;;;12.70;;
908;SDS011;441;51.192;6.788;2024-03-29T08:56:14;14.20;;;13.70;;
908;SDS011;441;51.192;6.788;2024-03-29T08:58:43;13.80;;;13.30;;
908;SDS011;441;51.192;6.788;2024-03-29T09:01:12;14.10;;;13.37;;
908;SDS011;441;51.192;6.788;2024-03-29T09:03:40;13.40;;;13.00;;
908;SDS011;441;51.192;6.788;2024-03-29T09:06:08;13.93;;;13.53;;
908;SDS011;441;51.192;6.788;2024-03-29T09:08:35;12.30;;;12.00;;
908;SDS011;441;51.192;6.788;2024-03-29T09:11:02;12.90;;;12.50;;
908;SDS011;441;51.192;6.788;2024-03-29T09:13:30;12.80;;;12.13;;
908;SDS011;441;51.192;6.788;2024-03-29T09:15:58;13.00;;;12.70;;
908;SDS011;441;51.192;6.788;2024-03-29T09:18:25;13.13;;;12.70;;
908;SDS011;441;51.192;6.788;2024-03-29T09:20:55;13.40;;;13.00;;
908;SDS011;441;51.192;6.788;2024-03-29T09:23:23;13.47;;;13.17;;
908;SDS011;441;51.192;6.788;2024-03-29T09:25:52;13.67;;;13.30;;
908;SDS011;441;51.192;6.788;2024-03-29T09:28:19;14.80;;;14.00;;
908;SDS011;441;51.192;6.788;2024-03-29T09:30:46;14.10;;;13.70;;
908;SDS011;441;51.192;6.788;2024-03-29T09:33:16;13.33;;;12.93;;
908;SDS011;441;51.192;6.788;2024-03-29T09:35:43;13.60;;;13.00;;
908;SDS011;441;51.192;6.788;2024-03-29T09:38:10;13.50;;;13.07;;
908;SDS011;441;51.192;6.788;2024-03-29T09:40:37;11.85;;;11.40;;
908;SDS011;441;51.192;6.788;2024-03-29T09:43:04;13.00;;;12.60;;
908;SDS011;441;51.192;6.788;2024-03-29T09:45:33;13.70;;;13.00;;
908;SDS011;441;51.192;6.788;2024-03-29T09:48:02;15.00;;;14.60;;
908;SDS011;441;51.192;6.788;2024-03-29T09:50:32;15.03;;;14.53;;
908;SDS011;441;51.192;6.788;2024-03-29T09:53:01;14.83;;;14.33;;
908;SDS011;441;51.192;6.788;2024-03-29T09:55:28;15.73;;;14.90;;
908;SDS011;441;51.192;6.788;2024-03-29T09:57:57;14.53;;;13.93;;
908;SDS011;441;51.192;6.788;2024-03-29T10:00:25;14.93;;;14.10;;
908;SDS011;441;51.192;6.788;2024-03-29T10:02:53;14.33;;;13.77;;
908;SDS011;441;51.192;6.788;2024-03-29T10:05:22;15.47;;;14.97;;
908;SDS011;441;51.192;6.788;2024-03-29T10:07:51;15.43;;;14.70;;
908;SDS011;441;51.192;6.788;2024-03-29T10:10:18;15.73;;;14.80;;
908;SDS011;441;51.192;6.788;2024-03-29T10:12:45;14.60;;;14.20;;
908;SDS011;441;51.192;6.788;2024-03-29T10:15:12;14.80;;;14.40;;
908;SDS011;441;51.192;6.788;2024-03-29T10:17:44;14.80;;;14.20;;
908;SDS011;441;51.192;6.788;2024-03-29T10:20:14;15.90;;;15.40;;
908;SDS011;441;51.192;6.788;2024-03-29T10:22:42;16.67;;;16.07;;
908;SDS011;441;51.192;6.788;2024-03-29T10:25:10;15.03;;;14.43;;
908;SDS011;441;51.192;6.788;2024-03-29T10:27:38;15.40;;;14.90;;
908;SDS011;441;51.192;6.788;2024-03-29T10:30:06;15.00;;;14.43;;
908;SDS011;441;51.192;6.788;2024-03-29T10:32:34;15.23;;;14.80;;
908;SDS011;441;51.192;6.788;2024-03-29T10:35:03;14.27;;;13.90;;
908;SDS011;441;51.192;6.788;2024-03-29T10:37:30;17.90;;;17.00;;
908;SDS011;441;51.192;6.788;2024-03-29T10:40:03;15.00;;;14.50;;
908;SDS011;441;51.192;6.788;2024-03-29T10:42:34;15.40;;;14.90;;
908;SDS011;441;51.192;6.788;2024-03-29T10:45:03;16.13;;;15.53;;
908;SDS011;441;51.192;6.788;2024-03-29T10:47:31;14.57;;;13.97;;
908;SDS011;441;51.192;6.788;2024-03-29T10:49:59;15.33;;;14.67;;
908;SDS011;441;51.192;6.788;2024-03-29T10:52:28;15.33;;;14.83;;
908;SDS011;441;51.192;6.788;2024-03-29T10:54:54;14.93;;;14.47;;
908;SDS011;441;51.192;6.788;2024-03-29T10:57:22;15.63;;;14.63;;
908;SDS011;441;51.192;6.788;2024-03-29T10:59:54;15.03;;;14.50;;
908;SDS011;441;51.192;6.788;2024-03-29T11:02:29;14.20;;;13.80;;
908;SDS011;441;51.192;6.788;2024-03-29T11:05:02;12.52;;;12.10;;
908;SDS011;441;51.192;6.788;2024-03-29T11:07:38;12.00;;;11.70;;
908;SDS011;441;51.192;6.788;2024-03-29T11:10:13;15.30;;;14.70;;
908;SDS011;441;51.192;6.788;2024-03-29T11:12:45;13.23;;;12.83;;
908;SDS011;441;51.192;6.788;2024-03-29T11:15:25;12.45;;;12.05;;
908;SDS011;441;51.192;6.788;2024-03-29T11:17:55;14.63;;;14.17;;
908;SDS011;441;51.192;6.788;2024-03-29T11:20:23;16.17;;;15.67;;
908;SDS011;441;51.192;6.788;2024-03-29T11:22:59;13.35;;;12.75;;
908;SDS011;441;51.192;6.788;2024-03-29T11:25:37;14.77;;;14.17;;
908;SDS011;441;51.192;6.788;2024-03-29T11:28:08;13.60;;;13.30;;
908;SDS011;441;51.192;6.788;2024-03-29T11:30:43;13.63;;;13.13;;
908;SDS011;441;51.192;6.788;2024-03-29T11:33:28;13.83;;;13.33;;
908;SDS011;441;51.192;6.788;2024-03-29T11:35:56;14.07;;;13.67;;
908;SDS011;441;51.192;6.788;2024-03-29T11:38:29;14.43;;;14.03;;
908;SDS011;441;51.192;6.788;2024-03-29T11:41:04;14.57;;;13.83;;
908;SDS011;441;51.192;6.788;2024-03-29T11:43:32;14.60;;;14.20;;
908;SDS011;441;51.192;6.788;2024-03-29T11:46:02;14.60;;;14.20;;
908;SDS011;441;51.192;6.788;2024-03-29T11:48:30;13.87;;;13.47;;
908;SDS011;441;51.192;6.788;2024-03-29T11:50:58;14.20;;;13.80;;
908;SDS011;441;51.192;6.788;2024-03-29T11:53:26;14.17;;;13.77;;
908;SDS011;441;51.192;6.788;2024-03-29T11:55:54;15.67;;;14.87;;
908;SDS011;441;51.192;6.788;2024-03-29T11:58:21;14.10;;;13.70;;
908;SDS011;441;51.192;6.788;2024-03-29T12:00:49;14.20;;;13.80;;
908;SDS011;441;51.192;6.788;2024-03-29T12:03:18;14.77;;;14.37;;
908;SDS011;441;51.192;6.788;2024-03-29T12:05:47;14.00;;;13.60;;
908;SDS011;441;51.192;6.788;2024-03-29T12:08:15;14.77;;;14.37;;
908;SDS011;441;51.192;6.788;2024-03-29T12:10:42;14.83;;;14.43;;
908;SDS011;441;51.192;6.788;2024-03-29T12:13:09;14.83;;;14.40;;
908;SDS011;441;51.192;6.788;2024-03-29T12:15:36;14.33;;;13.93;;
908;SDS011;441;51.192;6.788;2024-03-29T12:18:03;13.40;;;13.10;;
908;SDS011;441;51.192;6.788;2024-03-29T12:20:32;13.27;;;12.97;;
908;SDS011;441;51.192;6.788;2024-03-29T12:23:00;15.93;;;14.77;;
908;SDS011;441;51.192;6.788;2024-03-29T12:25:27;16.50;;;15.80;;
908;SDS011;441;51.192;6.788;2024-03-29T12:27:54;15.00;;;14.60;;
908;SDS011;441;51.192;6.788;2024-03-29T12:30:21;15.20;;;14.80;;
908;SDS011;441;51.192;6.788;2024-03-29T12:32:48;14.80;;;14.40;;
908;SDS011;441;51.192;6.788;2024-03-29T12:35:26;15.33;;;14.83;;
908;SDS011;441;51.192;6.788;2024-03-29T12:37:57;15.07;;;14.57;;
908;SDS011;441;51.192;6.788;2024-03-29T12:40:25;16.30;;;15.70;;
908;SDS011;441;51.192;6.788;2024-03-29T12:42:54;15.80;;;15.40;;
908;SDS011;441;51.192;6.788;2024-03-29T12:45:22;20.00;;;19.40;;
908;SDS011;441;51.192;6.788;2024-03-29T12:47:50;18.80;;;18.20;;
908;SDS011;441;51.192;6.788;2024-03-29T12:50:19;19.57;;;18.97;;
908;SDS011;441;51.192;6.788;2024-03-29T12:52:52;19.60;;;19.00;;
908;SDS011;441;51.192;6.788;2024-03-29T12:55:21;19.87;;;19.27;;
908;SDS011;441;51.192;6.788;2024-03-29T12:57:49;20.17;;;19.57;;
908;SDS011;441;51.192;6.788;2024-03-29T13:00:18;19.60;;;19.00;;
908;SDS011;441;51.192;6.788;2024-03-29T13:02:45;19.37;;;18.77;;
908;SDS011;441;51.192;6.788;2024-03-29T13:05:11;19.77;;;19.17;;
908;SDS011;441;51.192;6.788;2024-03-29T13:07:39;19.60;;;19.00;;
908;SDS011;441;51.192;6.788;2024-03-29T13:10:06;19.57;;;18.87;;
908;SDS011;441;51.192;6.788;2024-03-29T13:12:40;19.20;;;18.67;;
908;SDS011;441;51.192;6.788;2024-03-29T13:15:14;18.20;;;17.70;;
908;SDS011;441;51.192;6.788;2024-03-29T13:17:42;19.90;;;19.30;;
908;SDS011;441;51.192;6.788;2024-03-29T13:20:09;20.97;;;20.20;;
908;SDS011;441;51.192;6.788;2024-03-29T13:22:36;20.60;;;19.90;;
908;SDS011;441;51.192;6.788;2024-03-29T13:25:03;21.20;;;20.40;;
908;SDS011;441;51.192;6.788;2024-03-29T13:27:31;20.80;;;20.00;;
908;SDS011;441;51.192;6.788;2024-03-29T13:29:59;21.43;;;20.73;;
908;SDS011;441;51.192;6.788;2024-03-29T13:32:26;21.13;;;20.47;;
908;SDS011;441;51.192;6.788;2024-03-29T13:34:54;22.07;;;21.33;;
908;SDS011;441;51.192;6.788;2024-03-29T13:37:21;19.70;;;19.10;;
908;SDS011;441;51.192;6.788;2024-03-29T13:39:51;20.63;;;19.93;;
908;SDS011;441;51.192;6.788;2024-03-29T13:42:18;19.90;;;19.20;;
908;SDS011;441;51.192;6.788;2024-03-29T13:44:46;20.50;;;19.80;;
908;SDS011;441;51.192;6.788;2024-03-29T13:47:16;19.63;;;18.93;;
908;SDS011;441;51.192;6.788;2024-03-29T13:49:44;19.10;;;18.40;;
908;SDS011;441;51.192;6.788;2024-03-29T13:52:11;20.83;;;20.03;;
908;SDS011;441;51.192;6.788;2024-03-29T13:54:42;19.83;;;19.23;;
908;SDS011;441;51.192;6.788;2024-03-29T13:57:11;19.90;;;19.10;;
908;SDS011;441;51.192;6.788;2024-03-29T13:59:38;20.33;;;19.73;;
908;SDS011;441;51.192;6.788;2024-03-29T14:02:07;19.80;;;19.20;;
908;SDS011;441;51.192;6.788;2024-03-29T14:04:35;20.20;;;19.50;;
908;SDS011;441;51.192;6.788;2024-03-29T14:07:02;19.90;;;19.30;;
908;SDS011;441;51.192;6.788;2024-03-29T14:09:32;19.70;;;19.00;;
908;SDS011;441;51.192;6.788;2024-03-29T14:11:59;19.63;;;18.33;;
908;SDS011;441;51.192;6.788;2024-03-29T14:14:25;19.53;;;18.63;;
908;SDS011;441;51.192;6.788;2024-03-29T14:16:52;20.03;;;19.33;;
908;SDS011;441;51.192;6.788;2024-03-29T14:19:19;22.67;;;20.97;;
908;SDS011;441;51.192;6.788;2024-03-29T14:21:47;22.33;;;20.63;;
908;SDS011;441;51.192;6.788;2024-03-29T14:24:13;22.67;;;21.23;;
908;SDS011;441;51.192;6.788;2024-03-29T14:26:40;23.70;;;21.63;;
908;SDS011;441;51.192;6.788;2024-03-29T14:29:08;22.70;;;20.90;;
908;SDS011;441;51.192;6.788;2024-03-29T14:31:36;22.47;;;20.97;;
908;SDS011;441;51.192;6.788;2024-03-29T14:34:03;23.57;;;21.83;;
908;SDS011;441;51.192;6.788;2024-03-29T14:36:30;22.50;;;21.20;;
908;SDS011;441;51.192;6.788;2024-03-29T14:38:59;22.80;;;21.50;;
908;SDS011;441;51.192;6.788;2024-03-29T14:41:26;23.33;;;21.80;;
908;SDS011;441;51.192;6.788;2024-03-29T14:43:54;22.03;;;20.13;;
908;SDS011;441;51.192;6.788;2024-03-29T14:46:22;22.40;;;20.93;;
908;SDS011;441;51.192;6.788;2024-03-29T14:48:49;23.73;;;22.00;;
908;SDS011;441;51.192;6.788;2024-03-29T14:51:15;21.93;;;20.43;;
908;SDS011;441;51.192;6.788;2024-03-29T14:53:43;21.87;;;20.97;;
908;SDS011;441;51.192;6.788;2024-03-29T14:56:15;23.77;;;21.97;;
908;SDS011;441;51.192;6.788;2024-03-29T14:58:42;20.80;;;19.30;;
908;SDS011;441;51.192;6.788;2024-03-29T15:01:10;18.10;;;17.40;;
908;SDS011;441;51.192;6.788;2024-03-29T15:03:36;19.70;;;18.30;;
908;SDS011;441;51.192;6.788;2024-03-29T15:06:03;19.57;;;18.20;;
908;SDS011;441;51.192;6.788;2024-03-29T15:08:31;21.83;;;20.23;;
908;SDS011;441;51.192;6.788;2024-03-29T15:10:57;20.47;;;19.30;;
908;SDS011;441;51.192;6.788;2024-03-29T15:13:26;19.87;;;18.33;;
908;SDS011;441;51.192;6.788;2024-03-29T15:15:54;22.23;;;20.77;;
908;SDS011;441;51.192;6.788;2024-03-29T15:18:21;21.00;;;19.90;;